Time,TemperatureF,DewpointF,PressureIn,WindDirection,WindDirectionDegrees,WindSpeedMPH,WindSpeedGustMPH,Humidity,HourlyPrecipIn,Conditions,Clouds,dailyrainin,SoftwareType,DateUTC
2013-03-27 00:02:00,62.0,45.0,-100.00,NNE,31,10.0,19.0,53,0.10,,,0.57,,2013-03-27 10:02:00,
2013-03-27 00:11:00,63.0,41.0,-100.00,NNE,29,8.0,18.0,44,0.06,,,0.63,,2013-03-27 10:11:00,
2013-03-27 00:32:00,63.0,41.0,-100.00,NNE,29,8.0,18.0,44,0.06,,,0.63,,2013-03-27 10:32:00,
2013-03-27 00:42:00,63.0,41.0,-100.00,NNE,29,8.0,18.0,44,0.06,,,0.63,,2013-03-27 10:42:00,
2013-03-27 00:52:00,63.0,41.0,-100.00,NNE,29,8.0,18.0,44,0.06,,,0.63,,2013-03-27 10:52:00,
2013-03-27 01:02:00,63.0,41.0,-100.00,NNE,29,8.0,18.0,44,0.06,,,0.63,,2013-03-27 11:02:00,
2013-03-27 01:11:00,63.0,33.0,-100.00,NNE,32,8.0,16.0,32,0.19,,,0.82,,2013-03-27 11:11:00,
2013-03-27 01:32:00,63.0,33.0,-100.00,NNE,32,8.0,16.0,32,0.19,,,0.82,,2013-03-27 11:32:00,
2013-03-27 01:42:00,63.0,33.0,-100.00,NNE,32,8.0,16.0,32,0.19,,,0.82,,2013-03-27 11:42:00,
2013-03-27 01:52:00,63.0,33.0,-100.00,NNE,32,8.0,16.0,32,0.19,,,0.82,,2013-03-27 11:52:00,
2013-03-27 02:02:00,63.0,33.0,-100.00,NNE,32,8.0,16.0,32,0.19,,,0.82,,2013-03-27 12:02:00,
2013-03-27 02:11:00,61.0,24.0,-100.00,NNE,27,9.0,17.0,24,0.47,,,1.29,,2013-03-27 12:11:00,
2013-03-27 02:32:00,61.0,24.0,-100.00,NNE,27,9.0,17.0,24,0.47,,,1.29,,2013-03-27 12:32:00,
2013-03-27 02:43:00,61.0,24.0,-100.00,NNE,27,9.0,17.0,24,0.47,,,1.29,,2013-03-27 12:43:00,
2013-03-27 02:52:00,61.0,24.0,-100.00,NNE,27,9.0,17.0,24,0.47,,,1.29,,2013-03-27 12:52:00,
2013-03-27 03:02:00,61.0,24.0,-100.00,NNE,27,9.0,17.0,24,0.47,,,1.29,,2013-03-27 13:02:00,
2013-03-27 03:11:00,61.0,18.0,-100.00,NNE,30,9.0,18.0,19,0.16,,,1.45,,2013-03-27 13:11:00,
2013-03-27 03:42:00,61.0,18.0,-100.00,NNE,30,9.0,18.0,19,0.16,,,1.45,,2013-03-27 13:42:00,
2013-03-27 03:53:00,61.0,18.0,-100.00,NNE,30,9.0,18.0,19,0.16,,,1.45,,2013-03-27 13:53:00,
2013-03-27 04:02:00,61.0,18.0,-100.00,NNE,30,9.0,18.0,19,0.16,,,1.45,,2013-03-27 14:02:00,
2013-03-27 04:11:00,61.0,14.0,-100.00,NNE,29,8.0,15.0,16,0.11,,,1.56,,2013-03-27 14:11:00,
2013-03-27 04:42:00,61.0,14.0,-100.00,NNE,29,8.0,15.0,16,0.11,,,1.56,,2013-03-27 14:42:00,
2013-03-27 04:52:00,61.0,14.0,-100.00,NNE,29,8.0,15.0,16,0.11,,,1.56,,2013-03-27 14:52:00,
2013-03-27 05:02:00,61.0,14.0,-100.00,NNE,29,8.0,15.0,16,0.11,,,1.56,,2013-03-27 15:02:00,
2013-03-27 05:11:00,60.0,11.0,-100.00,NNE,30,6.0,19.0,14,0.07,,,1.56,,2013-03-27 15:11:00,
2013-03-27 05:33:00,60.0,11.0,-100.00,NNE,30,6.0,19.0,14,0.07,,,1.56,,2013-03-27 15:33:00,
2013-03-27 05:43:00,60.0,11.0,-100.00,NNE,30,6.0,19.0,14,0.07,,,1.56,,2013-03-27 15:43:00,
2013-03-27 05:52:00,60.0,11.0,-100.00,NNE,30,6.0,19.0,14,0.07,,,1.56,,2013-03-27 15:52:00,
2013-03-27 06:02:00,60.0,11.0,-100.00,NNE,30,6.0,19.0,14,0.07,,,1.56,,2013-03-27 16:02:00,
2013-03-27 08:11:00,60.0,5.0,-100.00,NNE,33,8.0,17.0,11,-99.99,,,-99.99,,2013-03-27 18:11:00,
2013-03-27 08:33:00,60.0,5.0,-100.00,NNE,33,8.0,17.0,11,-99.99,,,-99.99,,2013-03-27 18:33:00,
2013-03-27 08:42:00,60.0,5.0,-100.00,NNE,33,8.0,17.0,11,-99.99,,,-99.99,,2013-03-27 18:42:00,
2013-03-27 08:53:00,60.0,5.0,-100.00,NNE,33,8.0,17.0,11,-99.99,,,-99.99,,2013-03-27 18:53:00,
2013-03-27 09:02:00,60.0,5.0,-100.00,NNE,33,8.0,17.0,11,-99.99,,,-99.99,,2013-03-27 19:02:00,
2013-03-27 09:11:00,61.0,14.0,-100.00,NE,37,9.0,16.0,16,0.00,,,1.70,,2013-03-27 19:11:00,
2013-03-27 09:42:00,61.0,14.0,-100.00,NE,37,9.0,16.0,16,0.00,,,1.70,,2013-03-27 19:42:00,
2013-03-27 09:52:00,61.0,14.0,-100.00,NE,37,9.0,16.0,16,0.00,,,1.70,,2013-03-27 19:52:00,
2013-03-27 10:02:00,61.0,14.0,-100.00,NE,37,9.0,16.0,16,0.00,,,1.70,,2013-03-27 20:02:00,
2013-03-27 11:11:00,66.0,59.0,-100.00,NNE,32,9.0,16.0,79,0.00,,,-99.99,,2013-03-27 21:11:00,
2013-03-27 11:32:00,66.0,59.0,-100.00,NNE,32,9.0,16.0,79,0.00,,,-99.99,,2013-03-27 21:32:00,
2013-03-27 11:43:00,66.0,59.0,-100.00,NNE,32,9.0,16.0,79,0.00,,,-99.99,,2013-03-27 21:43:00,
2013-03-27 11:52:00,66.0,59.0,-100.00,NNE,32,9.0,16.0,79,0.00,,,-99.99,,2013-03-27 21:52:00,
2013-03-27 12:02:00,66.0,59.0,-100.00,NNE,32,9.0,16.0,79,0.00,,,-99.99,,2013-03-27 22:02:00,
2013-03-27 12:11:00,70.0,60.0,-100.00,NNE,33,9.0,16.0,71,0.01,,,1.60,,2013-03-27 22:11:00,
2013-03-27 12:42:00,70.0,60.0,-100.00,NNE,33,9.0,16.0,71,0.01,,,1.60,,2013-03-27 22:42:00,
2013-03-27 12:52:00,70.0,60.0,-100.00,NNE,33,9.0,16.0,71,0.01,,,1.60,,2013-03-27 22:52:00,
2013-03-27 13:02:00,70.0,60.0,-100.00,NNE,33,9.0,16.0,71,0.01,,,1.60,,2013-03-27 23:02:00,
2013-03-27 13:11:00,69.0,60.0,-100.00,North,7,8.0,15.0,73,0.00,,,1.60,,2013-03-27 23:11:00,
2013-03-27 13:42:00,69.0,60.0,-100.00,North,7,8.0,15.0,73,0.00,,,1.60,,2013-03-27 23:42:00,
2013-03-27 13:52:00,69.0,60.0,-100.00,North,7,8.0,15.0,73,0.00,,,1.60,,2013-03-27 23:52:00,
2013-03-27 14:02:00,69.0,60.0,-100.00,North,7,8.0,15.0,73,0.00,,,1.60,,2013-03-28 00:02:00,